sensor_id;sensor_type;location;lat;lon;timestamp;temperature;humidity
39957;DHT22;48483;44.640;7.494;2024-01-30T00:00:20;5.70;99.90
39957;DHT22;48483;44.640;7.494;2024-01-30T00:02:48;5.70;99.90
39957;DHT22;48483;44.640;7.494;2024-01-30T00:05:16;5.70;99.90
39957;DHT22;48483;44.640;7.494;2024-01-30T00:07:44;5.60;99.90
39957;DHT22;48483;44.640;7.494;2024-01-30T00:10:11;5.60;99.90
39957;DHT22;48483;44.640;7.494;2024-01-30T00:12:37;5.50;99.90
39957;DHT22;48483;44.640;7.494;2024-01-30T00:15:05;5.50;99.90
39957;DHT22;48483;44.640;7.494;2024-01-30T00:17:34;5.40;99.90
39957;DHT22;48483;44.640;7.494;2024-01-30T00:20:03;5.40;99.90
39957;DHT22;48483;44.640;7.494;2024-01-30T00:22:31;5.30;99.90
39957;DHT22;48483;44.640;7.494;2024-01-30T00:24:58;5.40;99.90
39957;DHT22;48483;44.640;7.494;2024-01-30T00:27:25;5.40;99.90
39957;DHT22;48483;44.640;7.494;2024-01-30T00:29:52;5.40;99.90
39957;DHT22;48483;44.640;7.494;2024-01-30T00:32:19;5.40;99.90
39957;DHT22;48483;44.640;7.494;2024-01-30T00:34:45;5.40;99.90
39957;DHT22;48483;44.640;7.494;2024-01-30T00:37:14;5.40;99.90
39957;DHT22;48483;44.640;7.494;2024-01-30T00:39:40;5.40;99.90
39957;DHT22;48483;44.640;7.494;2024-01-30T00:42:07;5.30;99.90
39957;DHT22;48483;44.640;7.494;2024-01-30T00:44:35;5.30;99.90
39957;DHT22;48483;44.640;7.494;2024-01-30T00:47:03;5.30;99.90
39957;DHT22;48483;44.640;7.494;2024-01-30T00:49:30;5.30;99.90
39957;DHT22;48483;44.640;7.494;2024-01-30T00:51:56;5.30;99.90
39957;DHT22;48483;44.640;7.494;2024-01-30T00:54:25;5.20;99.90
39957;DHT22;48483;44.640;7.494;2024-01-30T00:56:51;5.20;99.90
39957;DHT22;48483;44.640;7.494;2024-01-30T00:59:18;5.20;99.90
39957;DHT22;48483;44.640;7.494;2024-01-30T01:01:44;5.20;99.90
39957;DHT22;48483;44.640;7.494;2024-01-30T01:04:11;5.30;99.90
39957;DHT22;48483;44.640;7.494;2024-01-30T01:06:37;5.20;99.90
39957;DHT22;48483;44.640;7.494;2024-01-30T01:09:04;5.30;99.90
39957;DHT22;48483;44.640;7.494;2024-01-30T01:11:32;5.30;99.90
39957;DHT22;48483;44.640;7.494;2024-01-30T01:13:59;5.30;99.90
39957;DHT22;48483;44.640;7.494;2024-01-30T01:16:25;5.30;99.90
39957;DHT22;48483;44.640;7.494;2024-01-30T01:18:52;5.30;99.90
39957;DHT22;48483;44.640;7.494;2024-01-30T01:21:18;5.20;99.90
39957;DHT22;48483;44.640;7.494;2024-01-30T01:23:45;5.20;99.90
39957;DHT22;48483;44.640;7.494;2024-01-30T01:26:12;5.20;99.90
39957;DHT22;48483;44.640;7.494;2024-01-30T01:28:41;5.20;99.90
39957;DHT22;48483;44.640;7.494;2024-01-30T01:31:08;5.20;99.90
39957;DHT22;48483;44.640;7.494;2024-01-30T01:33:34;5.20;99.90
39957;DHT22;48483;44.640;7.494;2024-01-30T01:36:03;5.20;99.90
39957;DHT22;48483;44.640;7.494;2024-01-30T01:38:30;5.20;99.90
39957;DHT22;48483;44.640;7.494;2024-01-30T01:40:56;5.20;99.90
39957;DHT22;48483;44.640;7.494;2024-01-30T01:43:23;5.20;99.90
39957;DHT22;48483;44.640;7.494;2024-01-30T01:45:51;5.20;99.90
39957;DHT22;48483;44.640;7.494;2024-01-30T01:48:18;5.10;99.90
39957;DHT22;48483;44.640;7.494;2024-01-30T01:50:45;5.10;99.90
39957;DHT22;48483;44.640;7.494;2024-01-30T01:53:12;5.00;99.90
39957;DHT22;48483;44.640;7.494;2024-01-30T01:55:39;5.10;99.90
39957;DHT22;48483;44.640;7.494;2024-01-30T01:58:07;5.00;99.90
39957;DHT22;48483;44.640;7.494;2024-01-30T02:00:36;5.00;99.90
39957;DHT22;48483;44.640;7.494;2024-01-30T02:03:07;5.00;99.90
39957;DHT22;48483;44.640;7.494;2024-01-30T02:05:34;5.10;99.90
39957;DHT22;48483;44.640;7.494;2024-01-30T02:08:01;5.00;99.90
39957;DHT22;48483;44.640;7.494;2024-01-30T02:10:28;5.00;99.90
39957;DHT22;48483;44.640;7.494;2024-01-30T02:12:55;5.00;99.90
39957;DHT22;48483;44.640;7.494;2024-01-30T02:15:21;5.00;99.90
39957;DHT22;48483;44.640;7.494;2024-01-30T02:17:48;4.90;99.90
39957;DHT22;48483;44.640;7.494;2024-01-30T02:20:16;5.00;99.90
39957;DHT22;48483;44.640;7.494;2024-01-30T02:22:44;4.90;99.90
39957;DHT22;48483;44.640;7.494;2024-01-30T02:25:11;4.90;99.90
39957;DHT22;48483;44.640;7.494;2024-01-30T02:27:38;4.90;99.90
39957;DHT22;48483;44.640;7.494;2024-01-30T02:30:06;4.90;99.90
39957;DHT22;48483;44.640;7.494;2024-01-30T02:32:32;4.90;99.90
39957;DHT22;48483;44.640;7.494;2024-01-30T02:34:59;4.90;99.90
39957;DHT22;48483;44.640;7.494;2024-01-30T02:37:25;4.90;99.90
39957;DHT22;48483;44.640;7.494;2024-01-30T02:39:53;4.90;99.90
39957;DHT22;48483;44.640;7.494;2024-01-30T02:42:20;4.80;99.90
39957;DHT22;48483;44.640;7.494;2024-01-30T02:44:47;4.90;99.90
39957;DHT22;48483;44.640;7.494;2024-01-30T02:47:13;4.90;99.90
39957;DHT22;48483;44.640;7.494;2024-01-30T02:49:40;4.90;99.90
39957;DHT22;48483;44.640;7.494;2024-01-30T02:52:07;4.80;99.90
39957;DHT22;48483;44.640;7.494;2024-01-30T02:54:33;4.80;99.90
39957;DHT22;48483;44.640;7.494;2024-01-30T02:57:01;4.80;99.90
39957;DHT22;48483;44.640;7.494;2024-01-30T02:59:28;4.80;99.90
39957;DHT22;48483;44.640;7.494;2024-01-30T03:01:54;4.80;99.90
39957;DHT22;48483;44.640;7.494;2024-01-30T03:04:21;4.80;99.90
39957;DHT22;48483;44.640;7.494;2024-01-30T03:06:47;4.80;99.90
39957;DHT22;48483;44.640;7.494;2024-01-30T03:09:16;4.90;99.90
39957;DHT22;48483;44.640;7.494;2024-01-30T03:11:42;4.90;99.90
39957;DHT22;48483;44.640;7.494;2024-01-30T03:14:10;4.80;99.90
39957;DHT22;48483;44.640;7.494;2024-01-30T03:16:37;4.80;99.90
39957;DHT22;48483;44.640;7.494;2024-01-30T03:19:05;4.80;99.90
39957;DHT22;48483;44.640;7.494;2024-01-30T03:21:33;4.70;99.90
39957;DHT22;48483;44.640;7.494;2024-01-30T03:24:01;4.70;99.90
39957;DHT22;48483;44.640;7.494;2024-01-30T03:26:28;4.70;99.90
39957;DHT22;48483;44.640;7.494;2024-01-30T03:28:54;4.70;99.90
39957;DHT22;48483;44.640;7.494;2024-01-30T03:31:22;4.70;99.90
39957;DHT22;48483;44.640;7.494;2024-01-30T03:33:49;4.60;99.90
39957;DHT22;48483;44.640;7.494;2024-01-30T03:36:15;4.60;99.90
39957;DHT22;48483;44.640;7.494;2024-01-30T03:38:42;4.70;99.90
39957;DHT22;48483;44.640;7.494;2024-01-30T03:41:09;4.60;99.90
39957;DHT22;48483;44.640;7.494;2024-01-30T03:43:36;4.60;99.90
39957;DHT22;48483;44.640;7.494;2024-01-30T03:46:03;4.60;99.90
39957;DHT22;48483;44.640;7.494;2024-01-30T03:48:31;4.70;99.90
39957;DHT22;48483;44.640;7.494;2024-01-30T03:50:58;4.60;99.90
39957;DHT22;48483;44.640;7.494;2024-01-30T03:53:24;4.60;99.90
39957;DHT22;48483;44.640;7.494;2024-01-30T03:55:51;4.60;99.90
39957;DHT22;48483;44.640;7.494;2024-01-30T03:58:17;4.60;99.90
39957;DHT22;48483;44.640;7.494;2024-01-30T04:00:44;4.60;99.90
39957;DHT22;48483;44.640;7.494;2024-01-30T04:03:11;4.60;99.90
39957;DHT22;48483;44.640;7.494;2024-01-30T04:05:39;4.60;99.90
39957;DHT22;48483;44.640;7.494;2024-01-30T04:08:06;4.60;99.90
39957;DHT22;48483;44.640;7.494;2024-01-30T04:10:32;4.60;99.90
39957;DHT22;48483;44.640;7.494;2024-01-30T04:12:59;4.60;99.90
39957;DHT22;48483;44.640;7.494;2024-01-30T04:15:26;4.60;99.90
39957;DHT22;48483;44.640;7.494;2024-01-30T04:17:53;4.60;99.90
39957;DHT22;48483;44.640;7.494;2024-01-30T04:20:19;4.70;99.90
39957;DHT22;48483;44.640;7.494;2024-01-30T04:22:47;4.70;99.90
39957;DHT22;48483;44.640;7.494;2024-01-30T04:25:14;4.70;99.90
39957;DHT22;48483;44.640;7.494;2024-01-30T04:27:41;4.70;99.90
39957;DHT22;48483;44.640;7.494;2024-01-30T04:30:08;4.70;99.90
39957;DHT22;48483;44.640;7.494;2024-01-30T04:32:35;4.70;99.90
39957;DHT22;48483;44.640;7.494;2024-01-30T04:35:02;4.70;99.90
39957;DHT22;48483;44.640;7.494;2024-01-30T04:37:28;4.70;99.90
39957;DHT22;48483;44.640;7.494;2024-01-30T04:39:56;4.70;99.90
39957;DHT22;48483;44.640;7.494;2024-01-30T04:42:23;4.60;99.90
39957;DHT22;48483;44.640;7.494;2024-01-30T04:44:50;4.50;99.90
39957;DHT22;48483;44.640;7.494;2024-01-30T04:47:17;4.50;99.90
39957;DHT22;48483;44.640;7.494;2024-01-30T04:49:43;4.50;99.90
39957;DHT22;48483;44.640;7.494;2024-01-30T04:52:10;4.50;99.90
39957;DHT22;48483;44.640;7.494;2024-01-30T04:54:36;4.50;99.90
39957;DHT22;48483;44.640;7.494;2024-01-30T04:57:05;4.50;99.90
39957;DHT22;48483;44.640;7.494;2024-01-30T04:59:35;4.50;99.90
39957;DHT22;48483;44.640;7.494;2024-01-30T05:02:02;4.50;99.90
39957;DHT22;48483;44.640;7.494;2024-01-30T05:04:29;4.50;99.90
39957;DHT22;48483;44.640;7.494;2024-01-30T05:06:56;4.50;99.90
39957;DHT22;48483;44.640;7.494;2024-01-30T05:09:22;4.40;99.90
39957;DHT22;48483;44.640;7.494;2024-01-30T05:11:49;4.40;99.90
39957;DHT22;48483;44.640;7.494;2024-01-30T05:14:17;4.40;99.90
39957;DHT22;48483;44.640;7.494;2024-01-30T05:16:44;4.40;99.90
39957;DHT22;48483;44.640;7.494;2024-01-30T05:19:13;4.30;99.90
39957;DHT22;48483;44.640;7.494;2024-01-30T05:21:41;4.30;99.90
39957;DHT22;48483;44.640;7.494;2024-01-30T05:24:07;4.30;99.90
39957;DHT22;48483;44.640;7.494;2024-01-30T05:26:36;4.40;99.90
39957;DHT22;48483;44.640;7.494;2024-01-30T05:29:02;4.40;99.90
39957;DHT22;48483;44.640;7.494;2024-01-30T05:31:31;4.40;99.90
39957;DHT22;48483;44.640;7.494;2024-01-30T05:33:57;4.30;99.90
39957;DHT22;48483;44.640;7.494;2024-01-30T05:36:24;4.40;99.90
39957;DHT22;48483;44.640;7.494;2024-01-30T05:38:50;4.30;99.90
39957;DHT22;48483;44.640;7.494;2024-01-30T05:41:17;4.30;99.90
39957;DHT22;48483;44.640;7.494;2024-01-30T05:43:43;4.30;99.90
39957;DHT22;48483;44.640;7.494;2024-01-30T05:46:10;4.30;99.90
39957;DHT22;48483;44.640;7.494;2024-01-30T05:48:38;4.30;99.90
39957;DHT22;48483;44.640;7.494;2024-01-30T05:51:06;4.30;99.90
39957;DHT22;48483;44.640;7.494;2024-01-30T05:53:33;4.30;99.90
39957;DHT22;48483;44.640;7.494;2024-01-30T05:56:01;4.40;99.90
39957;DHT22;48483;44.640;7.494;2024-01-30T05:58:27;4.40;99.90
39957;DHT22;48483;44.640;7.494;2024-01-30T06:00:54;4.40;99.90
39957;DHT22;48483;44.640;7.494;2024-01-30T06:03:21;4.40;99.90
39957;DHT22;48483;44.640;7.494;2024-01-30T06:05:49;4.40;99.90
39957;DHT22;48483;44.640;7.494;2024-01-30T06:08:15;4.40;99.90
39957;DHT22;48483;44.640;7.494;2024-01-30T06:10:42;4.30;99.90
39957;DHT22;48483;44.640;7.494;2024-01-30T06:13:08;4.30;99.90
39957;DHT22;48483;44.640;7.494;2024-01-30T06:15:35;4.30;99.90
39957;DHT22;48483;44.640;7.494;2024-01-30T06:18:01;4.30;99.90
39957;DHT22;48483;44.640;7.494;2024-01-30T06:20:28;4.20;99.90
39957;DHT22;48483;44.640;7.494;2024-01-30T06:22:56;4.20;99.90
39957;DHT22;48483;44.640;7.494;2024-01-30T06:25:23;4.10;99.90
39957;DHT22;48483;44.640;7.494;2024-01-30T06:27:50;4.20;99.90
39957;DHT22;48483;44.640;7.494;2024-01-30T06:30:16;4.20;99.90
39957;DHT22;48483;44.640;7.494;2024-01-30T06:32:43;4.10;99.90
39957;DHT22;48483;44.640;7.494;2024-01-30T06:35:10;4.10;99.90
39957;DHT22;48483;44.640;7.494;2024-01-30T06:37:37;4.10;99.90
39957;DHT22;48483;44.640;7.494;2024-01-30T06:40:06;4.10;99.90
39957;DHT22;48483;44.640;7.494;2024-01-30T06:42:33;4.20;99.90
39957;DHT22;48483;44.640;7.494;2024-01-30T06:44:59;4.20;99.90
39957;DHT22;48483;44.640;7.494;2024-01-30T06:47:26;4.20;99.90
39957;DHT22;48483;44.640;7.494;2024-01-30T06:49:52;4.20;99.90
39957;DHT22;48483;44.640;7.494;2024-01-30T06:52:19;4.30;99.90
39957;DHT22;48483;44.640;7.494;2024-01-30T06:54:46;4.30;99.90
39957;DHT22;48483;44.640;7.494;2024-01-30T06:57:14;4.30;99.90
39957;DHT22;48483;44.640;7.494;2024-01-30T06:59:40;4.30;99.90
39957;DHT22;48483;44.640;7.494;2024-01-30T07:02:09;4.40;99.90
39957;DHT22;48483;44.640;7.494;2024-01-30T07:04:36;4.40;99.90
39957;DHT22;48483;44.640;7.494;2024-01-30T07:07:07;4.30;99.90
39957;DHT22;48483;44.640;7.494;2024-01-30T07:09:38;4.30;99.90
39957;DHT22;48483;44.640;7.494;2024-01-30T07:12:06;4.40;99.90
39957;DHT22;48483;44.640;7.494;2024-01-30T07:14:34;4.40;99.90
39957;DHT22;48483;44.640;7.494;2024-01-30T07:17:00;4.50;99.90
39957;DHT22;48483;44.640;7.494;2024-01-30T07:19:27;4.50;99.90
39957;DHT22;48483;44.640;7.494;2024-01-30T07:21:53;4.50;99.90
39957;DHT22;48483;44.640;7.494;2024-01-30T07:24:20;4.60;99.90
39957;DHT22;48483;44.640;7.494;2024-01-30T07:26:47;4.60;99.90
39957;DHT22;48483;44.640;7.494;2024-01-30T07:29:13;4.70;99.90
39957;DHT22;48483;44.640;7.494;2024-01-30T07:31:41;4.80;99.90
39957;DHT22;48483;44.640;7.494;2024-01-30T07:34:08;4.80;99.90
39957;DHT22;48483;44.640;7.494;2024-01-30T07:36:34;4.90;99.90
39957;DHT22;48483;44.640;7.494;2024-01-30T07:39:01;4.90;99.90
39957;DHT22;48483;44.640;7.494;2024-01-30T07:41:28;5.00;99.90
39957;DHT22;48483;44.640;7.494;2024-01-30T07:43:54;5.10;99.90
39957;DHT22;48483;44.640;7.494;2024-01-30T07:46:21;5.20;99.90
39957;DHT22;48483;44.640;7.494;2024-01-30T07:48:48;5.20;99.90
39957;DHT22;48483;44.640;7.494;2024-01-30T07:51:15;5.30;99.90
39957;DHT22;48483;44.640;7.494;2024-01-30T07:53:42;5.30;99.90
39957;DHT22;48483;44.640;7.494;2024-01-30T07:56:08;5.40;99.90
39957;DHT22;48483;44.640;7.494;2024-01-30T07:58:35;5.40;99.90
39957;DHT22;48483;44.640;7.494;2024-01-30T08:01:01;5.40;99.90
39957;DHT22;48483;44.640;7.494;2024-01-30T08:03:29;5.60;99.90
39957;DHT22;48483;44.640;7.494;2024-01-30T08:05:57;5.60;99.90
39957;DHT22;48483;44.640;7.494;2024-01-30T08:08:23;5.70;99.90
39957;DHT22;48483;44.640;7.494;2024-01-30T08:10:50;5.70;99.90
39957;DHT22;48483;44.640;7.494;2024-01-30T08:13:16;5.90;99.90
39957;DHT22;48483;44.640;7.494;2024-01-30T08:15:43;6.00;99.90
39957;DHT22;48483;44.640;7.494;2024-01-30T08:18:10;6.10;99.90
39957;DHT22;48483;44.640;7.494;2024-01-30T08:20:36;6.20;99.90
39957;DHT22;48483;44.640;7.494;2024-01-30T08:23:04;6.30;99.90
39957;DHT22;48483;44.640;7.494;2024-01-30T08:25:31;6.40;99.90
39957;DHT22;48483;44.640;7.494;2024-01-30T08:27:57;6.40;99.90
39957;DHT22;48483;44.640;7.494;2024-01-30T08:30:24;6.40;99.90
39957;DHT22;48483;44.640;7.494;2024-01-30T08:32:51;6.40;99.90
39957;DHT22;48483;44.640;7.494;2024-01-30T08:35:18;6.40;99.90
39957;DHT22;48483;44.640;7.494;2024-01-30T08:37:44;6.40;99.90
39957;DHT22;48483;44.640;7.494;2024-01-30T08:40:12;6.40;99.90
39957;DHT22;48483;44.640;7.494;2024-01-30T08:42:39;6.40;99.90
39957;DHT22;48483;44.640;7.494;2024-01-30T08:45:06;6.50;99.90
39957;DHT22;48483;44.640;7.494;2024-01-30T08:47:33;6.60;99.90
39957;DHT22;48483;44.640;7.494;2024-01-30T08:49:59;6.60;99.90
39957;DHT22;48483;44.640;7.494;2024-01-30T08:52:26;6.50;99.90
39957;DHT22;48483;44.640;7.494;2024-01-30T08:54:52;6.40;99.90
39957;DHT22;48483;44.640;7.494;2024-01-30T08:57:20;6.40;99.90
39957;DHT22;48483;44.640;7.494;2024-01-30T08:59:47;6.40;99.90
39957;DHT22;48483;44.640;7.494;2024-01-30T09:02:14;6.40;99.90
39957;DHT22;48483;44.640;7.494;2024-01-30T09:04:42;6.40;99.90
39957;DHT22;48483;44.640;7.494;2024-01-30T09:07:09;6.40;99.90
39957;DHT22;48483;44.640;7.494;2024-01-30T09:09:37;6.40;99.90
39957;DHT22;48483;44.640;7.494;2024-01-30T09:12:06;6.30;99.90
39957;DHT22;48483;44.640;7.494;2024-01-30T09:14:37;6.30;99.90
39957;DHT22;48483;44.640;7.494;2024-01-30T09:17:04;6.40;99.90
39957;DHT22;48483;44.640;7.494;2024-01-30T09:19:31;6.40;99.90
39957;DHT22;48483;44.640;7.494;2024-01-30T09:21:57;6.40;99.90
39957;DHT22;48483;44.640;7.494;2024-01-30T09:24:25;6.40;99.90
39957;DHT22;48483;44.640;7.494;2024-01-30T09:26:51;6.40;99.90
39957;DHT22;48483;44.640;7.494;2024-01-30T09:29:18;6.50;99.90
39957;DHT22;48483;44.640;7.494;2024-01-30T09:31:46;6.50;99.90
39957;DHT22;48483;44.640;7.494;2024-01-30T09:34:13;6.60;99.90
39957;DHT22;48483;44.640;7.494;2024-01-30T09:36:39;6.60;99.90
39957;DHT22;48483;44.640;7.494;2024-01-30T09:39:06;6.70;99.90
39957;DHT22;48483;44.640;7.494;2024-01-30T09:41:38;6.80;99.90
39957;DHT22;48483;44.640;7.494;2024-01-30T09:44:06;6.80;99.90
39957;DHT22;48483;44.640;7.494;2024-01-30T09:46:35;6.80;99.90
39957;DHT22;48483;44.640;7.494;2024-01-30T09:49:03;6.90;99.90
39957;DHT22;48483;44.640;7.494;2024-01-30T09:51:31;6.90;99.90
39957;DHT22;48483;44.640;7.494;2024-01-30T09:53:57;6.90;99.90
39957;DHT22;48483;44.640;7.494;2024-01-30T09:56:24;6.90;99.90
39957;DHT22;48483;44.640;7.494;2024-01-30T09:58:50;7.00;99.90
39957;DHT22;48483;44.640;7.494;2024-01-30T10:01:17;7.00;99.90
39957;DHT22;48483;44.640;7.494;2024-01-30T10:03:45;7.00;99.90
39957;DHT22;48483;44.640;7.494;2024-01-30T10:06:14;7.00;99.90
39957;DHT22;48483;44.640;7.494;2024-01-30T10:08:42;7.10;99.90
39957;DHT22;48483;44.640;7.494;2024-01-30T10:11:09;7.20;99.90
39957;DHT22;48483;44.640;7.494;2024-01-30T10:13:36;7.20;99.90
39957;DHT22;48483;44.640;7.494;2024-01-30T10:16:02;7.20;99.90
39957;DHT22;48483;44.640;7.494;2024-01-30T10:18:33;7.20;99.90
39957;DHT22;48483;44.640;7.494;2024-01-30T10:20:59;7.30;99.90
39957;DHT22;48483;44.640;7.494;2024-01-30T10:23:28;7.40;99.90
39957;DHT22;48483;44.640;7.494;2024-01-30T10:25:55;7.40;99.90
39957;DHT22;48483;44.640;7.494;2024-01-30T10:28:22;7.40;99.90
39957;DHT22;48483;44.640;7.494;2024-01-30T10:30:57;7.50;99.90
39957;DHT22;48483;44.640;7.494;2024-01-30T10:33:25;7.50;99.90
39957;DHT22;48483;44.640;7.494;2024-01-30T10:35:55;7.60;99.90
39957;DHT22;48483;44.640;7.494;2024-01-30T10:38:28;7.60;99.90
39957;DHT22;48483;44.640;7.494;2024-01-30T10:40:56;7.70;99.90
39957;DHT22;48483;44.640;7.494;2024-01-30T10:43:24;7.70;99.90
39957;DHT22;48483;44.640;7.494;2024-01-30T10:45:57;7.80;99.90
39957;DHT22;48483;44.640;7.494;2024-01-30T10:48:30;7.80;99.90
39957;DHT22;48483;44.640;7.494;2024-01-30T10:50:59;7.90;99.90
39957;DHT22;48483;44.640;7.494;2024-01-30T10:53:29;7.90;99.90
39957;DHT22;48483;44.640;7.494;2024-01-30T10:55:57;8.00;99.90
39957;DHT22;48483;44.640;7.494;2024-01-30T10:58:25;8.00;99.90
39957;DHT22;48483;44.640;7.494;2024-01-30T11:00:53;8.10;99.90
39957;DHT22;48483;44.640;7.494;2024-01-30T11:03:20;8.10;99.90
39957;DHT22;48483;44.640;7.494;2024-01-30T11:05:49;8.20;99.90
39957;DHT22;48483;44.640;7.494;2024-01-30T11:08:23;8.20;99.90
39957;DHT22;48483;44.640;7.494;2024-01-30T11:10:55;8.20;99.90
39957;DHT22;48483;44.640;7.494;2024-01-30T11:13:22;8.20;99.90
39957;DHT22;48483;44.640;7.494;2024-01-30T11:15:52;8.30;99.90
39957;DHT22;48483;44.640;7.494;2024-01-30T11:18:25;8.30;99.90
39957;DHT22;48483;44.640;7.494;2024-01-30T11:20:52;8.30;99.90
39957;DHT22;48483;44.640;7.494;2024-01-30T11:23:21;8.30;99.90
39957;DHT22;48483;44.640;7.494;2024-01-30T11:25:48;8.30;99.90
39957;DHT22;48483;44.640;7.494;2024-01-30T11:28:16;8.30;99.90
39957;DHT22;48483;44.640;7.494;2024-01-30T11:30:43;8.40;99.90
39957;DHT22;48483;44.640;7.494;2024-01-30T11:33:11;8.40;99.90
39957;DHT22;48483;44.640;7.494;2024-01-30T11:35:39;8.50;99.90
39957;DHT22;48483;44.640;7.494;2024-01-30T11:38:07;8.60;99.90
39957;DHT22;48483;44.640;7.494;2024-01-30T11:40:35;8.70;99.90
39957;DHT22;48483;44.640;7.494;2024-01-30T11:43:03;8.70;99.90
39957;DHT22;48483;44.640;7.494;2024-01-30T11:45:33;8.70;99.90
39957;DHT22;48483;44.640;7.494;2024-01-30T11:48:00;8.70;99.90
39957;DHT22;48483;44.640;7.494;2024-01-30T11:50:28;8.80;99.90
39957;DHT22;48483;44.640;7.494;2024-01-30T11:52:54;8.80;99.90
39957;DHT22;48483;44.640;7.494;2024-01-30T11:55:23;8.90;99.90
39957;DHT22;48483;44.640;7.494;2024-01-30T11:57:50;8.90;99.90
39957;DHT22;48483;44.640;7.494;2024-01-30T12:00:18;8.90;99.90
39957;DHT22;48483;44.640;7.494;2024-01-30T12:02:49;8.90;99.90
39957;DHT22;48483;44.640;7.494;2024-01-30T12:05:16;9.00;99.90
39957;DHT22;48483;44.640;7.494;2024-01-30T12:07:44;9.10;99.90
39957;DHT22;48483;44.640;7.494;2024-01-30T12:10:11;9.10;99.90
39957;DHT22;48483;44.640;7.494;2024-01-30T12:12:42;9.20;99.90
39957;DHT22;48483;44.640;7.494;2024-01-30T12:15:10;9.20;99.90
39957;DHT22;48483;44.640;7.494;2024-01-30T12:17:37;9.10;99.90
39957;DHT22;48483;44.640;7.494;2024-01-30T12:20:05;9.10;99.90
39957;DHT22;48483;44.640;7.494;2024-01-30T12:22:35;9.20;99.90
39957;DHT22;48483;44.640;7.494;2024-01-30T12:25:02;9.40;99.90
39957;DHT22;48483;44.640;7.494;2024-01-30T12:27:30;9.40;99.90
39957;DHT22;48483;44.640;7.494;2024-01-30T12:29:57;9.50;99.90
39957;DHT22;48483;44.640;7.494;2024-01-30T12:32:24;9.50;99.90
39957;DHT22;48483;44.640;7.494;2024-01-30T12:34:54;9.60;99.90
39957;DHT22;48483;44.640;7.494;2024-01-30T12:37:22;9.60;99.90
39957;DHT22;48483;44.640;7.494;2024-01-30T12:39:52;9.70;99.90
39957;DHT22;48483;44.640;7.494;2024-01-30T12:42:20;9.70;99.90
39957;DHT22;48483;44.640;7.494;2024-01-30T12:44:48;9.70;99.90
39957;DHT22;48483;44.640;7.494;2024-01-30T12:47:15;9.80;99.90
39957;DHT22;48483;44.640;7.494;2024-01-30T12:49:44;9.80;99.90
39957;DHT22;48483;44.640;7.494;2024-01-30T12:52:11;9.80;99.90
39957;DHT22;48483;44.640;7.494;2024-01-30T12:54:42;9.80;99.90
39957;DHT22;48483;44.640;7.494;2024-01-30T12:57:09;9.80;99.90
39957;DHT22;48483;44.640;7.494;2024-01-30T12:59:35;9.90;99.90
39957;DHT22;48483;44.640;7.494;2024-01-30T13:02:02;9.90;99.90
39957;DHT22;48483;44.640;7.494;2024-01-30T13:04:29;9.90;99.90
39957;DHT22;48483;44.640;7.494;2024-01-30T13:06:56;9.90;99.90
39957;DHT22;48483;44.640;7.494;2024-01-30T13:09:23;9.90;99.90
39957;DHT22;48483;44.640;7.494;2024-01-30T13:11:52;9.90;99.90
39957;DHT22;48483;44.640;7.494;2024-01-30T13:14:19;10.00;99.90
39957;DHT22;48483;44.640;7.494;2024-01-30T13:16:45;10.00;99.90
39957;DHT22;48483;44.640;7.494;2024-01-30T13:19:12;10.00;99.90
39957;DHT22;48483;44.640;7.494;2024-01-30T13:21:39;10.00;99.90
39957;DHT22;48483;44.640;7.494;2024-01-30T13:24:06;10.00;99.90
39957;DHT22;48483;44.640;7.494;2024-01-30T13:26:33;10.00;99.90
39957;DHT22;48483;44.640;7.494;2024-01-30T13:29:01;10.00;99.90
39957;DHT22;48483;44.640;7.494;2024-01-30T13:31:28;10.10;99.90
39957;DHT22;48483;44.640;7.494;2024-01-30T13:33:54;10.10;99.90
39957;DHT22;48483;44.640;7.494;2024-01-30T13:36:22;10.20;99.90
39957;DHT22;48483;44.640;7.494;2024-01-30T13:38:48;10.20;99.90
39957;DHT22;48483;44.640;7.494;2024-01-30T13:41:15;10.20;99.90
39957;DHT22;48483;44.640;7.494;2024-01-30T13:43:43;10.20;99.90
39957;DHT22;48483;44.640;7.494;2024-01-30T13:46:11;10.10;99.90
39957;DHT22;48483;44.640;7.494;2024-01-30T13:48:38;10.10;99.90
39957;DHT22;48483;44.640;7.494;2024-01-30T13:51:04;10.10;99.90
39957;DHT22;48483;44.640;7.494;2024-01-30T13:53:31;10.10;99.90
39957;DHT22;48483;44.640;7.494;2024-01-30T13:55:58;10.10;99.90
39957;DHT22;48483;44.640;7.494;2024-01-30T13:58:25;10.00;99.90
39957;DHT22;48483;44.640;7.494;2024-01-30T14:00:51;10.00;99.90
39957;DHT22;48483;44.640;7.494;2024-01-30T14:03:19;10.10;99.90
39957;DHT22;48483;44.640;7.494;2024-01-30T14:05:47;10.10;99.90
39957;DHT22;48483;44.640;7.494;2024-01-30T14:08:15;10.10;99.90
39957;DHT22;48483;44.640;7.494;2024-01-30T14:10:42;10.00;99.90
39957;DHT22;48483;44.640;7.494;2024-01-30T14:13:09;10.10;99.90
39957;DHT22;48483;44.640;7.494;2024-01-30T14:15:37;10.10;99.90
39957;DHT22;48483;44.640;7.494;2024-01-30T14:18:05;10.10;99.90
39957;DHT22;48483;44.640;7.494;2024-01-30T14:20:33;10.10;99.90
39957;DHT22;48483;44.640;7.494;2024-01-30T14:22:59;10.10;99.90
39957;DHT22;48483;44.640;7.494;2024-01-30T14:25:26;10.10;99.90
39957;DHT22;48483;44.640;7.494;2024-01-30T14:27:53;10.10;99.90
39957;DHT22;48483;44.640;7.494;2024-01-30T14:30:19;10.10;99.90
39957;DHT22;48483;44.640;7.494;2024-01-30T14:32:46;10.00;99.90
39957;DHT22;48483;44.640;7.494;2024-01-30T14:35:13;10.00;99.90
39957;DHT22;48483;44.640;7.494;2024-01-30T14:37:41;9.90;99.90
39957;DHT22;48483;44.640;7.494;2024-01-30T14:40:08;9.90;99.90
39957;DHT22;48483;44.640;7.494;2024-01-30T14:42:35;9.90;99.90
39957;DHT22;48483;44.640;7.494;2024-01-30T14:45:05;9.90;99.90
39957;DHT22;48483;44.640;7.494;2024-01-30T14:47:33;10.00;99.90
39957;DHT22;48483;44.640;7.494;2024-01-30T14:49:59;10.00;99.90
39957;DHT22;48483;44.640;7.494;2024-01-30T14:52:26;10.00;99.90
39957;DHT22;48483;44.640;7.494;2024-01-30T14:54:54;10.00;99.90
39957;DHT22;48483;44.640;7.494;2024-01-30T14:57:20;10.00;99.90
39957;DHT22;48483;44.640;7.494;2024-01-30T14:59:47;10.00;99.90
39957;DHT22;48483;44.640;7.494;2024-01-30T15:02:15;9.90;99.90
39957;DHT22;48483;44.640;7.494;2024-01-30T15:04:41;10.00;99.90
39957;DHT22;48483;44.640;7.494;2024-01-30T15:07:08;9.90;99.90
39957;DHT22;48483;44.640;7.494;2024-01-30T15:09:35;9.90;99.90
39957;DHT22;48483;44.640;7.494;2024-01-30T15:12:04;10.00;99.90
39957;DHT22;48483;44.640;7.494;2024-01-30T15:14:30;10.00;99.90
39957;DHT22;48483;44.640;7.494;2024-01-30T15:16:57;10.00;99.90
39957;DHT22;48483;44.640;7.494;2024-01-30T15:19:24;10.00;99.90
39957;DHT22;48483;44.640;7.494;2024-01-30T15:21:50;10.00;99.90
39957;DHT22;48483;44.640;7.494;2024-01-30T15:24:17;9.90;99.90
39957;DHT22;48483;44.640;7.494;2024-01-30T15:26:44;9.90;99.90
39957;DHT22;48483;44.640;7.494;2024-01-30T15:29:12;9.90;99.90
39957;DHT22;48483;44.640;7.494;2024-01-30T15:31:39;9.90;99.90
39957;DHT22;48483;44.640;7.494;2024-01-30T15:34:06;9.80;99.90
39957;DHT22;48483;44.640;7.494;2024-01-30T15:36:32;9.80;99.90
39957;DHT22;48483;44.640;7.494;2024-01-30T15:38:59;9.80;99.90
39957;DHT22;48483;44.640;7.494;2024-01-30T15:41:25;9.70;99.90
39957;DHT22;48483;44.640;7.494;2024-01-30T15:43:52;9.70;99.90